Time;durP1;ratioP1;P1;durP2;ratioP2;P2;SDS_P1;SDS_P2;PMS_P1;PMS_P2;Temp;Humidity;BMP_temperature;BMP_pressure;BME280_temperature;BME280_humidity;BME280_pressure;Samples;Min_cycle;Max_cycle;Signal;HPM_P1;HPM_P2
2022/07/10 00:02:20;;;;;;;;;2.00;2.00;;;;;19.76;48.35;102049.78;5076229;28;45327;-62
2022/07/10 00:04:45;;;;;;;;;3.00;2.00;;;;;19.70;48.79;102066.44;5077973;27;45479;-57
2022/07/10 00:07:10;;;;;;;;;1.00;1.00;;;;;19.58;49.27;102061.91;5075988;27;47444;-60
2022/07/10 00:09:36;;;;;;;;;3.00;3.00;;;;;19.52;49.60;102054.19;5077009;27;45411;-60
2022/07/10 00:12:01;;;;;;;;;4.00;2.33;;;;;19.45;49.93;102051.09;5077368;27;45375;-62
2022/07/10 00:14:27;;;;;;;;;3.00;2.00;;;;;19.32;50.21;102061.00;5077590;27;45532;-62
2022/07/10 00:16:52;;;;;;;;;3.00;3.00;;;;;19.31;50.25;102060.16;5077361;27;46074;-56
2022/07/10 00:19:17;;;;;;;;;2.33;2.33;;;;;19.31;49.66;102059.28;5075683;28;45315;-62
2022/07/10 00:21:43;;;;;;;;;3.00;2.67;;;;;19.26;49.77;102054.19;5077509;27;45229;-56
2022/07/10 00:24:10;;;;;;;;;4.00;3.00;;;;;19.26;49.98;102053.31;5077620;27;45397;-55
2022/07/10 00:26:35;;;;;;;;;3.00;0.33;;;;;19.25;50.15;102055.16;5076856;27;45946;-59
2022/07/10 00:29:00;;;;;;;;;4.00;3.00;;;;;19.29;50.39;102059.41;5076636;27;45378;-63
2022/07/10 00:31:26;;;;;;;;;3.00;2.00;;;;;19.22;49.85;102065.31;5076991;27;45337;-63
2022/07/10 00:33:51;;;;;;;;;2.00;2.00;;;;;19.18;50.42;102067.34;5077422;27;45523;-60
2022/07/10 00:36:17;;;;;;;;;1.00;1.00;;;;;19.13;50.39;102070.34;5077316;27;45428;-55
2022/07/10 00:38:42;;;;;;;;;7.00;2.00;;;;;18.99;51.10;102053.41;5077100;27;45492;-58
2022/07/10 00:41:07;;;;;;;;;1.00;1.00;;;;;19.07;51.27;102073.47;5077679;27;45365;-58
2022/07/10 00:43:53;;;;;;;;;3.00;3.00;;;;;19.02;51.36;102075.66;5077324;27;45458;-56
2022/07/10 00:46:20;;;;;;;;;1.00;1.00;;;;;19.00;51.38;102069.47;5076709;27;46212;-61
2022/07/10 00:48:48;;;;;;;;;3.00;3.00;;;;;19.00;51.92;102065.91;5076815;27;45331;-59
2022/07/10 00:51:16;;;;;;;;;2.00;2.00;;;;;18.89;51.88;102058.56;5075460;27;45295;-58
2022/07/10 00:53:44;;;;;;;;;3.67;2.33;;;;;18.86;52.58;102058.75;5076936;27;45289;-58
2022/07/10 00:56:10;;;;;;;;;3.00;2.00;;;;;18.79;52.18;102061.00;5075919;28;45552;-56
2022/07/10 00:58:36;;;;;;;;;2.00;2.00;;;;;18.78;52.47;102051.19;5077436;28;45473;-57
2022/07/10 01:01:02;;;;;;;;;2.00;2.00;;;;;18.78;52.90;102044.94;5078349;27;45253;-56
2022/07/10 01:03:27;;;;;;;;;5.00;3.67;;;;;18.78;52.57;102043.13;5077044;27;45286;-58
2022/07/10 01:05:53;;;;;;;;;2.00;1.00;;;;;18.83;52.31;102049.03;5076490;27;46273;-62
2022/07/10 01:08:19;;;;;;;;;3.00;3.00;;;;;18.82;52.62;102051.84;5074832;28;45324;-61
2022/07/10 01:10:47;;;;;;;;;4.33;3.00;;;;;18.81;53.22;102047.44;5076494;27;45270;-60
2022/07/10 01:13:13;;;;;;;;;4.67;3.00;;;;;18.75;52.68;102042.44;5076417;27;45563;-64
2022/07/10 01:15:38;;;;;;;;;5.33;3.67;;;;;18.73;53.33;102050.63;5076311;27;45544;-63
2022/07/10 01:18:04;;;;;;;;;2.33;2.33;;;;;18.71;53.43;102043.63;5076108;27;45348;-63
2022/07/10 01:20:31;;;;;;;;;2.00;2.00;;;;;18.65;53.02;102036.81;5076057;27;45334;-59
2022/07/10 01:22:56;;;;;;;;;2.00;2.00;;;;;18.65;53.26;102047.59;5075458;27;45397;-57
2022/07/10 01:25:22;;;;;;;;;4.33;3.33;;;;;18.67;53.42;102045.66;5076103;27;45298;-60
2022/07/10 01:27:47;;;;;;;;;5.00;3.00;;;;;18.72;53.03;102050.75;5075022;27;45497;-58
2022/07/10 01:30:13;;;;;;;;;4.67;3.00;;;;;18.62;52.94;102034.31;5076663;27;45334;-61
2022/07/10 01:32:39;;;;;;;;;3.67;3.67;;;;;18.64;53.55;102040.50;5075405;28;45230;-56
2022/07/10 01:35:06;;;;;;;;;3.00;3.00;;;;;18.63;53.35;102046.81;5075974;27;46141;-56
2022/07/10 01:37:31;;;;;;;;;2.33;2.33;;;;;18.60;53.69;102044.31;5074289;27;46445;-57
2022/07/10 01:39:57;;;;;;;;;3.00;3.00;;;;;18.49;53.99;102046.84;5076163;28;45367;-61
2022/07/10 01:42:22;;;;;;;;;2.00;2.00;;;;;18.48;53.84;102043.28;5072808;27;45404;-58
2022/07/10 01:44:48;;;;;;;;;3.00;3.00;;;;;18.49;54.00;102049.53;5076156;27;46436;-57
2022/07/10 01:47:13;;;;;;;;;4.67;3.00;;;;;18.49;54.34;102044.16;5076049;27;45402;-58
2022/07/10 01:49:38;;;;;;;;;4.33;3.00;;;;;18.45;54.38;102048.03;5076219;27;45399;-56
2022/07/10 01:52:04;;;;;;;;;4.33;4.33;;;;;18.37;54.71;102045.84;5076167;27;45339;-59
2022/07/10 01:54:30;;;;;;;;;5.33;3.67;;;;;18.39;54.00;102048.44;5074588;28;48485;-58
2022/07/10 01:56:55;;;;;;;;;3.00;3.00;;;;;18.40;54.31;102050.16;5075591;27;45332;-56
2022/07/10 01:59:20;;;;;;;;;3.33;2.00;;;;;18.30;54.36;102051.72;5076142;27;45453;-64
2022/07/10 02:01:46;;;;;;;;;3.33;2.33;;;;;18.39;54.24;102060.06;5076237;27;45480;-56
2022/07/10 02:06:56;;;;;;;;;4.33;3.67;;;;;18.16;54.71;102039.16;5075935;27;45360;-59
2022/07/10 02:09:21;;;;;;;;;4.67;4.00;;;;;18.15;54.92;102065.22;5054401;28;45442;-61
2022/07/10 02:11:46;;;;;;;;;1.67;1.67;;;;;17.91;55.54;102046.13;5055987;28;45379;-61
2022/07/10 02:14:12;;;;;;;;;5.00;3.33;;;;;18.02;55.38;102076.88;5055778;28;46036;-58
2022/07/10 02:16:38;;;;;;;;;3.00;3.00;;;;;18.04;54.93;102069.56;5055817;28;45372;-60
2022/07/10 02:19:04;;;;;;;;;4.33;4.33;;;;;17.93;56.15;102060.34;5056315;28;45256;-64
2022/07/10 02:21:29;;;;;;;;;5.00;3.00;;;;;17.96;55.42;102061.97;5055989;28;45238;-57
2022/07/10 02:23:54;;;;;;;;;2.00;2.00;;;;;17.89;55.76;102055.25;5055580;28;45382;-57
2022/07/10 02:26:20;;;;;;;;;3.33;3.00;;;;;17.86;55.30;102050.06;5056771;28;45464;-58
2022/07/10 02:28:45;;;;;;;;;3.00;2.00;;;;;17.84;55.48;102055.56;5075007;28;45287;-61
2022/07/10 02:31:11;;;;;;;;;3.67;3.00;;;;;17.85;55.48;102049.22;5075615;27;45168;-61
2022/07/10 02:33:37;;;;;;;;;3.00;3.00;;;;;17.84;55.21;102046.59;5077365;27;46312;-59
2022/07/10 02:36:03;;;;;;;;;4.00;4.00;;;;;17.78;56.06;102039.78;5078729;27;45678;-60
2022/07/10 02:38:28;;;;;;;;;2.67;2.67;;;;;17.78;55.49;102041.63;5078837;27;45469;-62
2022/07/10 02:40:54;;;;;;;;;4.33;3.00;;;;;17.76;55.81;102035.47;5078998;27;45576;-62
2022/07/10 02:43:20;;;;;;;;;2.00;2.00;;;;;17.79;55.46;102037.97;5076790;28;45433;-62
2022/07/10 02:45:46;;;;;;;;;3.67;3.67;;;;;17.86;55.51;102031.25;5077936;28;45491;-62
2022/07/10 02:48:11;;;;;;;;;3.00;3.00;;;;;17.84;55.46;102031.34;5079143;27;45832;-59
2022/07/10 02:50:37;;;;;;;;;4.67;2.67;;;;;17.81;55.75;102034.19;5078814;27;45588;-59
2022/07/10 02:53:03;;;;;;;;;5.33;4.00;;;;;17.78;55.81;102030.84;5077322;28;46063;-61
2022/07/10 02:55:31;;;;;;;;;5.00;3.00;;;;;17.75;55.86;102031.91;5078628;27;45431;-55
2022/07/10 02:57:57;;;;;;;;;4.00;4.00;;;;;17.62;55.96;102015.66;5078181;27;45195;-54
2022/07/10 03:00:22;;;;;;;;;3.00;2.67;;;;;17.70;55.68;102020.56;5079026;27;45471;-60
2022/07/10 03:02:48;;;;;;;;;4.33;2.00;;;;;17.74;55.65;102029.31;5076748;27;46571;-61
2022/07/10 03:05:13;;;;;;;;;3.67;3.67;;;;;17.71;55.84;102030.41;5079132;27;45457;-58
2022/07/10 03:07:38;;;;;;;;;2.67;2.67;;;;;17.65;56.52;102030.72;5078492;27;45279;-63
2022/07/10 03:10:04;;;;;;;;;7.67;5.00;;;;;17.57;56.14;102027.63;5078557;27;45313;-59
2022/07/10 03:12:30;;;;;;;;;5.00;3.33;;;;;17.51;56.99;102028.91;5078188;28;45385;-60
2022/07/10 03:14:55;;;;;;;;;2.00;2.00;;;;;17.53;56.38;102032.34;5078305;27;45448;-58
2022/07/10 03:17:20;;;;;;;;;4.67;3.00;;;;;17.47;56.93;102022.00;5078445;27;45345;-61
2022/07/10 03:19:46;;;;;;;;;4.00;4.00;;;;;17.44;57.11;102030.22;5078628;27;45615;-59
2022/07/10 03:22:11;;;;;;;;;2.00;2.00;;;;;17.35;56.75;102026.31;5078090;27;45330;-62
2022/07/10 03:24:36;;;;;;;;;2.67;1.00;;;;;17.39;56.88;102025.16;5078294;27;45376;-55
2022/07/10 03:27:02;;;;;;;;;2.00;2.00;;;;;17.37;56.89;102021.69;5078266;27;45487;-63
2022/07/10 03:29:27;;;;;;;;;3.00;3.00;;;;;17.35;57.07;102014.69;5077116;27;45651;-60
2022/07/10 03:31:53;;;;;;;;;4.00;4.00;;;;;17.33;57.19;102030.06;5078003;27;46187;-57
2022/07/10 03:34:18;;;;;;;;;4.00;3.00;;;;;17.28;57.21;102022.25;5076720;28;45437;-55
2022/07/10 03:36:44;;;;;;;;;4.00;4.00;;;;;17.23;57.83;102023.50;5078056;27;45223;-63
2022/07/10 03:39:09;;;;;;;;;4.00;4.00;;;;;17.13;58.36;102025.03;5077005;28;45287;-58
2022/07/10 03:41:35;;;;;;;;;3.67;3.67;;;;;17.03;58.53;102028.25;5077953;28;45883;-59
2022/07/10 03:44:00;;;;;;;;;4.00;3.67;;;;;17.06;57.90;102027.22;5077344;27;45390;-58
2022/07/10 03:46:26;;;;;;;;;4.67;4.00;;;;;17.06;58.09;102016.47;5077627;27;45298;-57
2022/07/10 03:48:51;;;;;;;;;2.67;2.67;;;;;17.03;58.21;102014.81;5078045;27;45466;-62
2022/07/10 03:51:17;;;;;;;;;5.00;5.00;;;;;17.03;57.98;102009.44;5078196;27;45236;-57
2022/07/10 03:53:42;;;;;;;;;4.33;3.00;;;;;17.01;57.99;102016.72;5077890;27;45238;-59
2022/07/10 03:56:07;;;;;;;;;2.00;2.00;;;;;16.96;58.86;102017.97;5077707;28;45806;-57
2022/07/10 03:58:33;;;;;;;;;2.67;2.67;;;;;16.98;58.11;102019.63;5078253;27;45477;-58
2022/07/10 04:00:58;;;;;;;;;4.33;4.33;;;;;17.01;58.03;102021.25;5078216;27;45388;-60
2022/07/10 04:03:24;;;;;;;;;4.00;4.00;;;;;16.95;58.28;102013.56;5077734;27;45287;-68
2022/07/10 04:05:49;;;;;;;;;4.00;4.00;;;;;16.97;58.74;102019.72;5078420;27;45313;-58
2022/07/10 04:08:14;;;;;;;;;4.00;4.00;;;;;16.99;58.98;102024.03;5078046;27;45456;-58
2022/07/10 04:10:40;;;;;;;;;4.33;4.00;;;;;17.05;58.44;102020.97;5077822;27;45419;-58
2022/07/10 04:13:05;;;;;;;;;4.00;4.00;;;;;17.00;58.45;102008.78;5077136;27;45377;-57
2022/07/10 04:15:31;;;;;;;;;7.33;3.00;;;;;17.07;58.30;102019.06;5076200;27;45790;-57
2022/07/10 04:17:56;;;;;;;;;4.00;3.00;;;;;17.04;58.30;102019.22;5077149;27;45525;-56
2022/07/10 04:20:23;;;;;;;;;2.33;2.00;;;;;16.95;58.46;102009.06;5075896;28;46938;-60
2022/07/10 04:22:49;;;;;;;;;4.33;4.33;;;;;16.95;58.61;102019.81;5077400;28;45235;-56
2022/07/10 04:25:14;;;;;;;;;4.33;3.00;;;;;16.99;58.30;102025.84;5077285;27;45247;-58
2022/07/10 04:27:40;;;;;;;;;5.00;3.00;;;;;17.04;58.53;102021.91;5076689;27;45686;-57
2022/07/10 04:30:06;;;;;;;;;6.33;5.00;;;;;17.03;58.33;102027.38;5076935;27;45971;-61
2022/07/10 04:32:32;;;;;;;;;4.67;4.33;;;;;16.99;58.73;102024.03;5075259;28;45270;-60
2022/07/10 04:34:58;;;;;;;;;5.00;4.00;;;;;16.84;59.06;102019.59;5077125;28;45884;-61
2022/07/10 04:37:23;;;;;;;;;5.67;3.33;;;;;16.82;58.90;102028.69;5077365;27;45422;-61
2022/07/10 04:39:49;;;;;;;;;5.00;3.67;;;;;16.80;59.39;102026.97;5077264;27;45411;-62
2022/07/10 04:42:15;;;;;;;;;5.67;4.67;;;;;16.80;59.15;102032.34;5076868;27;45446;-56
2022/07/10 04:44:40;;;;;;;;;5.00;5.00;;;;;16.82;59.37;102034.94;5077033;27;45321;-57
2022/07/10 04:47:06;;;;;;;;;6.33;4.00;;;;;16.81;59.07;102027.84;5076760;27;45610;-62
2022/07/10 04:49:32;;;;;;;;;4.00;4.00;;;;;16.81;59.27;102033.22;5076755;27;46048;-60
2022/07/10 04:51:58;;;;;;;;;3.00;1.33;;;;;16.81;59.12;102033.22;5076485;27;45397;-62
2022/07/10 04:54:24;;;;;;;;;6.67;3.00;;;;;16.85;58.76;102031.19;5076889;28;45246;-57
2022/07/10 04:56:49;;;;;;;;;4.67;4.67;;;;;16.89;58.98;102033.59;5067697;27;45566;-59
2022/07/10 04:59:15;;;;;;;;;3.00;3.00;;;;;16.89;58.60;102025.53;5054972;28;47292;-59
2022/07/10 05:01:41;;;;;;;;;4.00;3.00;;;;;16.86;58.69;102028.41;5056357;28;45240;-59
2022/07/10 05:04:06;;;;;;;;;3.00;3.00;;;;;16.92;58.47;102019.09;5056415;28;45290;-60
2022/07/10 05:06:32;;;;;;;;;2.33;2.33;;;;;16.95;57.94;102024.31;5057043;28;45653;-61
2022/07/10 05:08:57;;;;;;;;;8.67;4.33;;;;;16.99;58.31;102026.72;5072778;28;46105;-57
2022/07/10 05:11:23;;;;;;;;;6.00;5.00;;;;;16.99;58.16;102032.09;5075315;28;45279;-56
2022/07/10 05:13:49;;;;;;;;;4.00;4.00;;;;;16.96;58.38;102032.28;5076713;27;45333;-59
2022/07/10 05:16:15;;;;;;;;;4.67;4.00;;;;;16.94;58.63;102033.34;5076426;28;45346;-60
2022/07/10 05:18:41;;;;;;;;;5.00;5.00;;;;;16.96;58.44;102031.41;5076290;27;45598;-57
2022/07/10 05:21:07;;;;;;;;;3.67;3.67;;;;;16.94;58.33;102033.34;5076363;27;45407;-64
2022/07/10 05:23:32;;;;;;;;;8.00;6.00;;;;;17.00;58.29;102036.50;5076332;27;45390;-62
2022/07/10 05:25:58;;;;;;;;;6.67;5.00;;;;;17.04;58.00;102040.72;5076303;28;45587;-58
2022/07/10 05:28:23;;;;;;;;;3.00;3.00;;;;;17.03;58.11;102041.69;5076312;27;46113;-64
2022/07/10 05:30:48;;;;;;;;;3.33;3.00;;;;;17.06;58.23;102033.47;5076502;27;45401;-60
2022/07/10 05:33:17;;;;;;;;;5.33;5.00;;;;;17.10;58.02;102037.69;5076934;27;45474;-61
2022/07/10 05:35:43;;;;;;;;;5.00;4.00;;;;;17.10;57.99;102035.00;5077266;28;45576;-60
2022/07/10 05:38:08;;;;;;;;;4.00;2.67;;;;;17.15;58.24;102036.53;5076236;28;45416;-58
2022/07/10 05:40:34;;;;;;;;;4.00;4.00;;;;;17.17;57.70;102027.41;5075276;28;45333;-63
2022/07/10 05:42:59;;;;;;;;;5.00;4.00;;;;;17.27;57.66;102043.84;5076081;27;45416;-55
2022/07/10 05:45:25;;;;;;;;;2.33;2.33;;;;;17.31;56.96;102048.09;5076663;27;45392;-55
2022/07/10 05:47:50;;;;;;;;;4.33;3.00;;;;;17.29;57.30;102039.25;5075977;27;46215;-55
2022/07/10 05:50:16;;;;;;;;;5.00;3.00;;;;;17.27;57.34;102046.53;5075823;27;45440;-60
2022/07/10 05:52:42;;;;;;;;;5.00;3.00;;;;;17.30;57.18;102055.28;5076361;28;45345;-65
2022/07/10 05:55:08;;;;;;;;;4.00;4.00;;;;;17.33;57.35;102054.25;5076452;27;45629;-61
2022/07/10 05:57:34;;;;;;;;;3.00;3.00;;;;;17.31;56.90;102045.38;5074997;27;45481;-66
2022/07/10 05:59:59;;;;;;;;;10.67;4.00;;;;;17.24;57.27;102046.75;5075628;27;45226;-64
2022/07/10 06:02:24;;;;;;;;;3.67;3.67;;;;;17.22;57.32;102044.16;5076694;27;45314;-64
2022/07/10 06:04:50;;;;;;;;;1.67;1.67;;;;;17.25;56.94;102048.47;5077060;27;45587;-63
2022/07/10 06:07:16;;;;;;;;;4.00;4.00;;;;;17.33;56.67;102051.56;5075889;27;45264;-59
2022/07/10 06:09:41;;;;;;;;;5.00;3.00;;;;;17.38;56.48;102050.31;5079014;27;45364;-61
2022/07/10 06:12:07;;;;;;;;;4.00;4.00;;;;;17.45;56.31;102050.81;5079225;28;45324;-57
2022/07/10 06:14:32;;;;;;;;;3.67;3.67;;;;;17.51;56.29;102049.56;5079363;27;45546;-57
2022/07/10 06:16:58;;;;;;;;;4.00;2.33;;;;;17.52;56.54;102046.78;5079396;27;45423;-58
2022/07/10 06:19:23;;;;;;;;;5.00;3.00;;;;;17.60;55.80;102046.31;5079388;28;45305;-59
2022/07/10 06:22:30;;;;;;;;;4.00;4.00;;;;;17.62;55.75;102037.19;5079360;27;45667;-55
2022/07/10 06:24:34;;;;;;;;;5.33;5.00;;;;;17.69;55.51;102049.28;5079147;27;45458;-56
2022/07/10 06:26:59;;;;;;;;;4.00;4.00;;;;;17.77;55.70;102040.75;5078599;27;45459;-57
2022/07/10 06:29:25;;;;;;;;;4.00;4.00;;;;;17.83;55.11;102034.97;5079693;27;45340;-55
2022/07/10 06:31:50;;;;;;;;;3.00;3.00;;;;;17.87;55.69;102031.13;5079113;27;45891;-56
2022/07/10 06:34:15;;;;;;;;;6.67;3.33;;;;;17.96;55.18;102046.69;5077967;27;45476;-58
2022/07/10 06:36:41;;;;;;;;;3.00;3.00;;;;;17.91;54.59;102026.41;5078787;27;45437;-60
2022/07/10 06:39:06;;;;;;;;;6.67;3.00;;;;;18.09;54.40;102041.38;5078789;27;45433;-55
2022/07/10 06:41:32;;;;;;;;;5.00;5.00;;;;;18.01;54.31;102019.47;5077556;27;45277;-63
2022/07/10 06:43:58;;;;;;;;;4.00;3.00;;;;;18.18;53.60;102035.41;5079049;27;45615;-58
2022/07/10 06:46:23;;;;;;;;;4.00;4.00;;;;;18.23;53.54;102038.69;5078715;27;46253;-62
2022/07/10 06:48:49;;;;;;;;;5.00;4.00;;;;;18.21;53.62;102035.19;5078795;27;45192;-58
2022/07/10 06:51:15;;;;;;;;;2.00;2.00;;;;;18.25;53.24;102042.13;5078896;27;45291;-58
2022/07/10 06:53:40;;;;;;;;;5.67;4.00;;;;;18.27;53.48;102044.72;5078935;28;45275;-58
2022/07/10 06:56:06;;;;;;;;;4.33;3.33;;;;;18.31;52.99;102045.38;5078499;27;45385;-60
2022/07/10 06:58:31;;;;;;;;;3.33;3.33;;;;;18.36;52.82;102043.22;5078538;27;45421;-61
2022/07/10 07:00:57;;;;;;;;;5.67;4.00;;;;;18.45;52.04;102042.63;5079157;27;45323;-60
2022/07/10 07:03:22;;;;;;;;;2.00;2.00;;;;;18.34;52.35;102019.09;5079096;27;45700;-60
2022/07/10 07:05:47;;;;;;;;;4.33;3.00;;;;;18.51;51.91;102042.25;5078654;27;45961;-60
2022/07/10 07:08:13;;;;;;;;;3.00;3.00;;;;;18.53;51.40;102043.88;5078557;27;45354;-60
2022/07/10 07:10:38;;;;;;;;;2.67;2.67;;;;;18.54;51.15;102048.28;5078583;27;45433;-60
2022/07/10 07:13:04;;;;;;;;;3.00;3.00;;;;;18.50;50.85;102045.91;5078542;27;45559;-58
2022/07/10 07:15:29;;;;;;;;;4.67;2.00;;;;;18.54;51.66;102047.41;5078477;27;46210;-64
2022/07/10 07:18:07;;;;;;;;;3.00;3.00;;;;;18.58;51.04;102047.09;5078179;27;45339;-56
2022/07/10 07:23:17;;;;;;;;;3.67;3.67;;;;;18.71;50.77;102033.69;5079183;28;45321;-56
2022/07/10 07:25:46;;;;;;;;;7.00;5.33;;;;;18.69;51.36;102024.88;5078088;27;46419;-61
2022/07/10 07:28:15;;;;;;;;;5.00;3.00;;;;;18.82;50.76;102036.53;5078368;27;45338;-57
2022/07/10 07:30:40;;;;;;;;;2.00;2.00;;;;;18.85;50.62;102030.94;5078169;27;45482;-65
2022/07/10 07:33:06;;;;;;;;;4.00;3.00;;;;;18.92;50.19;102025.16;5078325;27;45578;-62
2022/07/10 07:35:31;;;;;;;;;4.00;4.00;;;;;18.96;50.22;102021.25;5078081;27;45584;-61
2022/07/10 07:37:57;;;;;;;;;2.00;2.00;;;;;19.04;49.77;102019.78;5077786;27;45344;-61
2022/07/10 07:40:23;;;;;;;;;3.67;2.00;;;;;19.07;49.60;102024.94;5078040;27;45436;-64
2022/07/10 07:42:49;;;;;;;;;4.00;3.00;;;;;19.11;49.56;102009.41;5078085;27;45240;-60
2022/07/10 07:45:15;;;;;;;;;5.33;3.00;;;;;19.14;48.40;102009.19;5077655;27;45318;-58
2022/07/10 07:47:55;;;;;;;;;3.00;3.00;;;;;19.06;48.84;102004.34;5077272;27;45297;-64
2022/07/10 07:50:28;;;;;;;;;5.00;2.00;;;;;19.13;48.36;102008.31;5077796;27;45369;-60
2022/07/10 07:52:54;;;;;;;;;3.00;2.00;;;;;19.16;48.11;102004.56;5077319;27;45400;-61
2022/07/10 07:55:21;;;;;;;;;5.00;3.00;;;;;19.24;48.38;102010.28;5078774;27;46280;-62
2022/07/10 07:57:48;;;;;;;;;3.00;3.00;;;;;19.31;48.88;102016.97;5076562;27;45317;-55
2022/07/10 08:00:17;;;;;;;;;4.00;4.00;;;;;19.39;48.18;102009.19;5077131;27;45674;-61
2022/07/10 08:02:43;;;;;;;;;4.00;3.00;;;;;19.48;47.90;102020.31;5077585;27;45599;-62
2022/07/10 08:05:09;;;;;;;;;5.00;4.00;;;;;19.48;47.21;102014.94;5077123;27;45742;-57
2022/07/10 08:07:51;;;;;;;;;3.00;3.00;;;;;19.51;47.89;102017.41;5077265;27;45388;-62
2022/07/10 08:10:19;;;;;;;;;3.00;3.00;;;;;19.54;46.81;102009.09;5072261;27;45288;-61
2022/07/10 08:12:46;;;;;;;;;4.67;3.33;;;;;19.56;47.16;102009.88;5075423;27;45892;-59
2022/07/10 08:15:14;;;;;;;;;4.00;4.00;;;;;19.64;47.37;102015.59;5075428;27;45528;-62
2022/07/10 08:17:39;;;;;;;;;3.00;2.00;;;;;19.69;47.02;102008.03;5077893;27;45439;-60
2022/07/10 08:20:07;;;;;;;;;2.67;2.00;;;;;19.77;47.19;101997.53;5078333;28;45291;-58
2022/07/10 08:22:33;;;;;;;;;3.00;2.00;;;;;19.79;46.14;102000.97;5078501;27;45323;-58
2022/07/10 08:24:59;;;;;;;;;1.00;1.00;;;;;19.90;46.03;102008.31;5076956;27;46571;-58
2022/07/10 08:27:24;;;;;;;;;4.00;4.00;;;;;19.94;45.25;101996.31;5076838;27;45347;-56
2022/07/10 08:29:50;;;;;;;;;3.00;2.67;;;;;20.18;45.05;102007.13;5076990;27;45364;-57
2022/07/10 08:32:15;;;;;;;;;4.00;2.00;;;;;20.63;44.20;102007.41;5075497;27;45480;-59
2022/07/10 08:34:41;;;;;;;;;3.00;3.00;;;;;21.07;42.89;101999.44;5076526;27;46481;-58
2022/07/10 08:37:06;;;;;;;;;2.67;1.00;;;;;21.59;42.64;101999.88;5075136;27;45411;-59
2022/07/10 08:39:33;;;;;;;;;3.00;3.00;;;;;22.08;41.04;101994.09;5076913;27;45414;-56
2022/07/10 08:41:59;;;;;;;;;3.00;2.00;;;;;22.48;41.21;101980.78;5075839;28;45288;-60
2022/07/10 08:44:25;;;;;;;;;3.00;2.00;;;;;23.04;38.63;101983.22;5076761;27;45295;-58
2022/07/10 08:46:50;;;;;;;;;4.75;3.00;;;;;23.51;38.87;101986.34;5075045;27;45419;-58
2022/07/10 08:49:16;;;;;;;;;2.75;2.75;;;;;24.00;38.10;101990.13;5076678;27;45649;-56
2022/07/10 08:51:54;;;;;;;;;2.25;2.25;;;;;24.45;37.71;101974.19;5075428;27;45556;-56
2022/07/10 08:54:20;;;;;;;;;3.50;3.00;;;;;24.93;37.55;101976.00;5076722;27;46274;-57
2022/07/10 08:56:47;;;;;;;;;4.50;4.50;;;;;25.28;35.10;101965.38;5076414;27;45272;-59
2022/07/10 08:59:14;;;;;;;;;3.00;3.00;;;;;25.51;36.19;101962.25;5076616;27;45445;-57
2022/07/10 09:01:39;;;;;;;;;3.00;3.00;;;;;25.96;34.48;101964.22;5074962;28;45513;-58
2022/07/10 09:04:05;;;;;;;;;2.50;2.50;;;;;26.38;34.13;101954.44;5076242;27;45646;-64
2022/07/10 09:06:30;;;;;;;;;3.50;2.00;;;;;26.59;32.07;101953.28;5074836;28;45283;-59
2022/07/10 09:09:05;;;;;;;;;4.00;3.00;;;;;26.90;31.94;101950.97;5075277;27;45806;-57
2022/07/10 09:11:30;;;;;;;;;6.80;6.20;;;;;27.25;31.70;101945.44;5075206;28;45521;-58
2022/07/10 09:14:03;;;;;;;;;2.00;2.00;;;;;27.42;30.93;101942.78;5076152;27;46193;-58
2022/07/10 09:16:33;;;;;;;;;2.00;2.00;;;;;27.54;32.43;101947.78;5076285;27;45393;-52
2022/07/10 09:19:21;;;;;;;;;3.20;2.60;;;;;27.89;32.04;101940.44;5076543;27;45360;-60
2022/07/10 09:21:49;;;;;;;;;1.60;1.60;;;;;28.21;32.00;101942.38;5067011;27;45472;-54
2022/07/10 09:24:16;;;;;;;;;1.40;1.40;;;;;28.41;28.84;101945.69;5074795;27;48465;-56
2022/07/10 09:26:42;;;;;;;;;3.80;2.60;;;;;28.40;29.32;101942.09;5076087;27;45369;-54
2022/07/10 09:29:09;;;;;;;;;2.00;2.00;;;;;28.36;28.56;101942.59;5076599;27;45256;-56
2022/07/10 09:31:51;;;;;;;;;1.80;1.80;;;;;28.77;30.04;101937.97;5076690;27;45535;-60
2022/07/10 09:34:17;;;;;;;;;2.80;2.80;;;;;29.17;29.80;101936.22;5076155;27;46237;-61
2022/07/10 09:36:43;;;;;;;;;2.00;2.00;;;;;29.30;27.26;101923.69;5076231;27;45538;-63
2022/07/10 09:39:09;;;;;;;;;2.00;2.00;;;;;29.63;28.34;101927.19;5075272;28;45541;-56
2022/07/10 09:41:35;;;;;;;;;2.75;2.75;;;;;29.73;28.46;101926.13;5076429;27;45369;-66
2022/07/10 09:44:04;;;;;;;;;2.00;2.00;;;;;29.97;27.94;101931.47;5078727;27;45425;-62
2022/07/10 09:46:41;;;;;;;;;2.40;2.40;;;;;30.15;26.56;101933.94;5079400;27;45433;-61
2022/07/10 09:49:13;;;;;;;;;1.00;1.00;;;;;30.07;26.47;101928.50;5080163;27;45369;-62
2022/07/10 09:51:41;;;;;;;;;2.00;2.00;;;;;30.27;28.45;101923.41;5080176;27;45237;-59
2022/07/10 09:54:08;;;;;;;;;2.20;1.80;;;;;30.53;26.12;101930.22;5079808;27;46171;-57
2022/07/10 09:56:46;;;;;;;;;1.80;1.80;;;;;30.50;26.93;101925.09;5079740;27;45444;-57
2022/07/10 09:59:17;;;;;;;;;4.40;4.00;;;;;30.78;27.51;101917.16;5079204;27;45322;-57
2022/07/10 10:01:43;;;;;;;;;4.80;1.80;;;;;30.97;25.44;101923.97;5079318;27;45231;-64
2022/07/10 10:04:10;;;;;;;;;2.00;2.00;;;;;30.69;25.72;101917.41;5079438;27;45951;-58
2022/07/10 10:06:38;;;;;;;;;1.40;1.40;;;;;30.47;26.42;101925.47;5079709;27;45405;-60
2022/07/10 10:09:07;;;;;;;;;3.20;3.20;;;;;30.83;27.95;101913.84;5079511;27;45348;-64
2022/07/10 10:11:36;;;;;;;;;1.60;1.40;;;;;30.97;25.45;101918.50;5061551;28;45576;-62
2022/07/10 10:14:03;;;;;;;;;3.40;3.40;;;;;31.11;26.31;101923.13;5079011;27;45520;-54
2022/07/10 10:16:29;;;;;;;;;2.00;2.00;;;;;31.13;26.16;101916.63;5079089;27;45290;-59
2022/07/10 10:21:40;;;;;;;;;5.60;3.80;;;;;30.57;26.45;101911.47;5079713;28;45228;-59
2022/07/10 10:24:06;;;;;;;;;1.00;1.00;;;;;30.41;26.06;101911.63;5078891;27;45327;-59
2022/07/10 10:26:32;;;;;;;;;2.00;2.00;;;;;30.35;26.84;101907.72;5079109;28;45173;-59
2022/07/10 10:29:01;;;;;;;;;2.00;2.00;;;;;30.32;26.31;101902.59;5079316;27;45448;-59
2022/07/10 10:31:28;;;;;;;;;2.60;2.60;;;;;30.16;26.89;101898.09;5079450;27;45356;-58
2022/07/10 10:33:55;;;;;;;;;1.00;1.00;;;;;29.78;27.65;101902.59;5078761;28;45266;-58
2022/07/10 10:36:44;;;;;;;;;1.80;1.80;;;;;29.46;27.94;101908.22;5079059;27;45297;-61
2022/07/10 10:39:19;;;;;;;;;3.00;1.80;;;;;29.15;28.47;101905.41;5078962;27;45500;-61
2022/07/10 10:41:52;;;;;;;;;2.80;2.80;;;;;28.82;28.88;101893.66;5058684;28;45531;-59
2022/07/10 10:44:18;;;;;;;;;2.00;2.00;;;;;28.30;29.58;101903.09;5058259;28;45725;-58
2022/07/10 10:46:49;;;;;;;;;1.00;1.00;;;;;27.92;30.54;101896.34;5056076;28;45682;-59
2022/07/10 10:49:16;;;;;;;;;1.60;1.60;;;;;27.70;30.85;101891.50;5057235;28;45200;-60
2022/07/10 10:52:01;;;;;;;;;2.20;1.20;;;;;27.41;31.56;101892.75;5056413;28;45561;-59
2022/07/10 10:54:29;;;;;;;;;3.20;1.80;;;;;27.25;31.16;101885.34;5055276;28;45465;-59
2022/07/10 10:57:36;;;;;;;;;2.80;1.00;;;;;27.01;31.81;101883.34;5057179;28;45434;-60
2022/07/10 11:00:07;;;;;;;;;2.00;2.00;;;;;26.85;32.13;101880.47;5046259;28;45349;-58
2022/07/10 11:02:36;;;;;;;;;2.00;2.00;;;;;26.75;32.66;101872.38;5057649;28;45247;-57
2022/07/10 11:05:14;;;;;;;;;2.00;2.00;;;;;26.63;32.15;101870.94;5056853;27;45714;-60
2022/07/10 11:08:01;;;;;;;;;1.20;1.20;;;;;26.51;32.62;101872.22;5057402;28;45275;-57
2022/07/10 11:10:27;;;;;;;;;2.20;2.20;;;;;26.37;32.76;101870.06;5057429;28;45330;-59
2022/07/10 11:13:00;;;;;;;;;2.00;2.00;;;;;26.29;33.12;101857.16;5057478;28;45223;-59
2022/07/10 11:15:29;;;;;;;;;1.60;1.60;;;;;26.14;33.50;101856.00;5057112;28;46219;-58
2022/07/10 11:17:56;;;;;;;;;1.40;1.40;;;;;26.04;33.81;101852.50;5072045;28;45408;-59
2022/07/10 11:20:22;;;;;;;;;1.00;1.00;;;;;26.03;33.61;101856.25;5055532;28;45429;-60
2022/07/10 11:23:22;;;;;;;;;2.00;2.00;;;;;26.03;33.40;101857.09;5056922;28;45436;-59
2022/07/10 11:26:12;;;;;;;;;1.20;1.20;;;;;26.01;33.84;101858.28;5024124;28;46662;-55
2022/07/10 11:28:40;;;;;;;;;1.00;1.00;;;;;25.92;33.73;101859.25;5055421;28;45453;-59
2022/07/10 11:31:06;;;;;;;;;1.00;1.00;;;;;25.87;33.73;101838.72;5056502;28;45328;-58
2022/07/10 11:33:42;;;;;;;;;4.00;2.25;;;;;25.99;33.94;101843.94;5055215;28;45566;-60